Vision — WDF6306 — position and weather

sailwx.info

Track history (hours):
 
Tides and Currents Weather Stations Pressure Air Temp Water Temp Dewpoint Dewpoint Depression Visibility Wind Speed Wind Dir Waves Ship Positions

Vision

Owner: INTREPID SHIP MANAGEMENT, JACKSONVILLE, FL. More information available from US FCC via Universal Licensing System and Coast Guard Vessel Documentation Center.

Last reported at 2016-May-01 07:33 UTC. Time now 2016-May-01 07:58 UTC.
Position N 34°05' W 121°34'.

Length 199 m; draft 7.9 m.

Type: Towing. MMSI: 366904000.

Date/timePositionNaut miles runAvg speedWind from/ knotsBaromVisibWave heightAir tempDewpointWater temp
2016-May-01 07:33N 34°05' W 121°34'1111.4
2016-May-01 06:33N 34°16' W 121°38'1211.9
2016-May-01 05:33N 34°26' W 121°46'1711.7
2016-May-01 04:09N 34°39' W 121°57'1911.9
2016-May-01 02:32N 34°56' W 122°10'1212.3
2016-May-01 01:33N 35°06' W 122°18'1313.2
2016-May-01 00:33N 35°17' W 122°26'1312.8
2016-Apr-30 23:33N 35°27' W 122°36'1211.9
2016-Apr-30 22:33N 35°37' W 122°44'1211.8
2016-Apr-30 21:33N 35°47' W 122°51'1111.0
2016-Apr-30 20:33N 35°57' W 122°57'1111.4
2016-Apr-30 19:33N 36°08' W 122°60'1111.4
2016-Apr-30 18:33N 36°19' W 123°03'1111.4
2016-Apr-30 17:33N 36°31' W 123°05'1211.9
2016-Apr-30 16:33N 36°42' W 123°08'1111.5
2016-Apr-30 15:33N 36°54' W 123°10'1111.4
2016-Apr-30 14:33N 37°05' W 123°12'1110.9
2016-Apr-30 13:33N 37°16' W 123°13'1211.5
2016-Apr-30 12:33N 37°26' W 123°08'1110.7
2016-Apr-30 11:33N 37°36' W 123°01'10 9.8
2016-Apr-30 10:33N 37°41' W 122°51'9 9.3
2016-Apr-30 09:33N 37°45' W 122°40'1010.4
2016-Apr-30 08:33N 37°49' W 122°28'7 6.9
2016-Apr-30 07:33N 37°46' W 122°20'0 0.0
2016-Apr-30 06:33N 37°46' W 122°20'0 0.0
2016-Apr-30 05:30N 37°46' W 122°20'0 0.0
2016-Apr-30 04:33N 37°46' W 122°20'0 0.0
2016-Apr-30 03:33N 37°46' W 122°20'0 0.2
2016-Apr-30 02:33N 37°46' W 122°20'0 0.0
2016-Apr-30 01:33N 37°46' W 122°20'0 0.0
2016-Apr-30 00:33N 37°46' W 122°20'0 0.0
2016-Apr-29 23:33N 37°46' W 122°20'0 0.0
2016-Apr-29 22:33N 37°46' W 122°20'0 0.1
2016-Apr-29 21:30N 37°46' W 122°20'0 0.1
2016-Apr-29 20:33N 37°46' W 122°20'0 0.3
2016-Apr-29 19:33N 37°46' W 122°21'6 6.2
2016-Apr-29 18:34N 37°52' W 122°25'1110.5
2016-Apr-29 17:33N 38°02' W 122°22'1010.3
2016-Apr-29 16:33N 38°02' W 122°09'1 0.0
2016-Apr-28 23:08N 38°02' W 122°08'2 0.1
2016-Apr-27 21:28N 38°03' W 122°11'1011.0
2016-Apr-27 20:33N 38°01' W 122°23'1010.4
2016-Apr-27 19:34N 37°51' W 122°25'1211.8
2016-Apr-27 18:33N 37°46' W 122°38'1010.1
2016-Apr-27 17:33N 37°40' W 122°48'1110.5
2016-Apr-27 16:33N 37°34' W 122°59'4511.2
2016-Apr-27 12:32N 36°51' W 123°13'1211.5
2016-Apr-27 11:31N 36°39' W 123°13'2411.6
2016-Apr-27 09:26N 36°15' W 123°14'1011.2
2016-Apr-27 08:33N 36°05' W 123°11'1211.7
2016-Apr-27 07:32N 35°55' W 123°04'1111.2
2016-Apr-27 06:33N 35°45' W 122°57'1110.8
2016-Apr-27 05:32N 35°35' W 122°51'1010.3
2016-Apr-27 04:33N 35°27' W 122°44'1010.3
2016-Apr-27 03:33N 35°18' W 122°38'10 9.9
2016-Apr-27 02:33N 35°09' W 122°32'10 9.5
2016-Apr-27 01:32N 35°01' W 122°26'9 9.3
2016-Apr-27 00:33N 34°53' W 122°20'10 9.5
2016-Apr-26 23:33N 34°45' W 122°13'10 9.6
2016-Apr-26 22:33N 34°37' W 122°07'12 9.7
2016-Apr-26 21:19N 34°27' W 121°59'8 9.9
2016-Apr-26 20:33N 34°21' W 121°54'180 9.3
2016-Apr-26 01:19N 33°38' W 118°24'6 7.9
2016-Apr-26 00:31N 33°40' W 118°16'5 5.4
2016-Apr-25 23:33N 33°45' W 118°16'0 0.0
2016-Apr-25 22:33N 33°45' W 118°16'0 0.0
2016-Apr-25 21:33N 33°45' W 118°16'0 0.0
2016-Apr-25 20:33N 33°45' W 118°16'0 0.0
2016-Apr-25 19:33N 33°45' W 118°16'0 0.0
2016-Apr-25 18:33N 33°45' W 118°16'0 0.0
2016-Apr-25 17:33N 33°45' W 118°16'0 0.0
2016-Apr-25 16:33N 33°45' W 118°16'0 0.0
2016-Apr-25 15:27N 33°45' W 118°16'0 0.0
2016-Apr-25 14:33N 33°45' W 118°16'0 0.0
2016-Apr-25 13:33N 33°45' W 118°16'0 0.0
2016-Apr-25 12:33N 33°45' W 118°16'0 0.0
2016-Apr-25 11:33N 33°45' W 118°16'0 0.0
2016-Apr-25 10:33N 33°45' W 118°16'0 0.0
2016-Apr-25 09:33N 33°45' W 118°16'0 0.0
2016-Apr-25 08:33N 33°45' W 118°16'0 0.0
2016-Apr-25 07:33N 33°45' W 118°16'0 0.0
2016-Apr-25 06:33N 33°45' W 118°16'0 0.0
2016-Apr-25 05:33N 33°45' W 118°16'0 0.0
2016-Apr-25 04:33N 33°45' W 118°16'0 0.0
2016-Apr-25 03:33N 33°45' W 118°16'0 0.0
2016-Apr-25 02:33N 33°45' W 118°16'0 0.0
2016-Apr-25 01:33N 33°45' W 118°16'0 0.0
2016-Apr-25 00:33N 33°45' W 118°16'0 0.0
2016-Apr-24 23:33N 33°45' W 118°16'0 0.0
2016-Apr-24 22:33N 33°45' W 118°16'0 0.0
2016-Apr-24 21:33N 33°45' W 118°16'0 0.0
2016-Apr-24 20:33N 33°45' W 118°16'0 0.0
2016-Apr-24 19:33N 33°45' W 118°16'0 0.0
2016-Apr-24 18:33N 33°45' W 118°16'0 0.0
2016-Apr-24 17:33N 33°45' W 118°16'0 0.0
2016-Apr-24 16:33N 33°45' W 118°16'0 0.0
2016-Apr-24 15:33N 33°45' W 118°16'0 0.0
2016-Apr-24 14:33N 33°45' W 118°16'0 0.0
2016-Apr-24 13:30N 33°45' W 118°16'0 0.0
2016-Apr-24 12:21N 33°45' W 118°16'0 0.0
2016-Apr-24 11:10N 33°45' W 118°16'1 2.3
2016-Apr-24 10:33N 33°44' W 118°17'7 6.5
2016-Apr-24 09:33N 33°37' W 118°16'1110.0
2016-Apr-24 08:28N 33°36' W 118°29'1210.6
2016-Apr-24 07:22N 33°36' W 118°43'18 9.7
2016-Apr-24 05:33N 33°38' W 119°04'2210.0
2016-Apr-24 03:21N 33°40' W 119°30'28710.0
2016-Apr-22 22:30N 37°26' W 123°08'1111.5
2016-Apr-22 21:31N 37°35' W 123°01'1111.7
2016-Apr-22 20:33N 37°42' W 122°49'1110.7
2016-Apr-22 19:34N 37°46' W 122°37'9 9.0
2016-Apr-22 18:34N 37°50' W 122°27'6 5.7
2016-Apr-22 17:33N 37°55' W 122°27'7 7.3
2016-Apr-22 16:33N 38°02' W 122°22'9 9.4
2016-Apr-22 15:33N 38°03' W 122°11'2 1.1
2016-Apr-22 13:25N 38°02' W 122°08'0 0.0
2016-Apr-22 12:25N 38°02' W 122°08'0 0.0
2016-Apr-22 11:25N 38°02' W 122°08'0 0.0
2016-Apr-22 10:31N 38°02' W 122°08'0 0.0
2016-Apr-22 09:31N 38°02' W 122°08'0 0.0
2016-Apr-22 08:31N 38°02' W 122°08'0 0.0
2016-Apr-22 07:31N 38°02' W 122°08'0 0.0
2016-Apr-22 06:31N 38°02' W 122°08'0 0.0
2016-Apr-22 05:31N 38°02' W 122°08'0 0.0
2016-Apr-22 04:31N 38°02' W 122°08'0 0.0
2016-Apr-22 03:31N 38°02' W 122°08'0 0.0
2016-Apr-22 02:31N 38°02' W 122°08'0 0.0
2016-Apr-22 01:31N 38°02' W 122°08'0 0.0
2016-Apr-22 00:31N 38°02' W 122°08'0 0.0
2016-Apr-21 23:31N 38°02' W 122°08'0 0.0
2016-Apr-21 22:31N 38°02' W 122°08'0 0.0
2016-Apr-21 21:31N 38°02' W 122°08'0 0.0
2016-Apr-21 20:25N 38°02' W 122°08'0 0.0
2016-Apr-21 19:31N 38°02' W 122°08'0 0.0
2016-Apr-21 18:31N 38°02' W 122°08'0 0.0
2016-Apr-21 17:31N 38°02' W 122°08'0 0.0
2016-Apr-21 16:31N 38°02' W 122°08'0 0.0
2016-Apr-21 15:31N 38°02' W 122°08'0 0.0
2016-Apr-21 14:31N 38°02' W 122°08'0 0.0
2016-Apr-21 13:31N 38°02' W 122°08'0 0.0
2016-Apr-21 12:31N 38°02' W 122°08'0 0.0
2016-Apr-21 11:31N 38°02' W 122°08'0 0.0
2016-Apr-21 10:25N 38°02' W 122°08'0 0.0
2016-Apr-21 09:31N 38°02' W 122°08'0 0.0
2016-Apr-21 08:13N 38°02' W 122°08'  
Track history (hours):
 
Tides and Currents Weather Stations Pressure Air Temp Water Temp Dewpoint Dewpoint Depression Visibility Wind Speed Wind Dir Waves Ship Positions

Vision

Owner: INTREPID SHIP MANAGEMENT, JACKSONVILLE, FL. More information available from US FCC via Universal Licensing System and Coast Guard Vessel Documentation Center.

Last reported at 2016-May-01 07:33 UTC. Time now 2016-May-01 07:58 UTC.
Position N 34°05' W 121°34'.

Length 199 m; draft 7.9 m.

Type: Towing. MMSI: 366904000.

Date/timePositionNaut miles runAvg speedWind from/ knotsBaromVisibWave heightAir tempDewpointWater temp
2016-May-01 07:33N 34°05' W 121°34'1111.4
2016-May-01 06:33N 34°16' W 121°38'1211.9
2016-May-01 05:33N 34°26' W 121°46'1711.7
2016-May-01 04:09N 34°39' W 121°57'1911.9
2016-May-01 02:32N 34°56' W 122°10'1212.3
2016-May-01 01:33N 35°06' W 122°18'1313.2
2016-May-01 00:33N 35°17' W 122°26'1312.8
2016-Apr-30 23:33N 35°27' W 122°36'1211.9
2016-Apr-30 22:33N 35°37' W 122°44'1211.8
2016-Apr-30 21:33N 35°47' W 122°51'1111.0
2016-Apr-30 20:33N 35°57' W 122°57'1111.4
2016-Apr-30 19:33N 36°08' W 122°60'1111.4
2016-Apr-30 18:33N 36°19' W 123°03'1111.4
2016-Apr-30 17:33N 36°31' W 123°05'1211.9
2016-Apr-30 16:33N 36°42' W 123°08'1111.5
2016-Apr-30 15:33N 36°54' W 123°10'1111.4
2016-Apr-30 14:33N 37°05' W 123°12'1110.9
2016-Apr-30 13:33N 37°16' W 123°13'1211.5
2016-Apr-30 12:33N 37°26' W 123°08'1110.7
2016-Apr-30 11:33N 37°36' W 123°01'10 9.8
2016-Apr-30 10:33N 37°41' W 122°51'9 9.3
2016-Apr-30 09:33N 37°45' W 122°40'1010.4
2016-Apr-30 08:33N 37°49' W 122°28'7 6.9
2016-Apr-30 07:33N 37°46' W 122°20'0 0.0
2016-Apr-30 06:33N 37°46' W 122°20'0 0.0
2016-Apr-30 05:30N 37°46' W 122°20'0 0.0
2016-Apr-30 04:33N 37°46' W 122°20'0 0.0
2016-Apr-30 03:33N 37°46' W 122°20'0 0.2
2016-Apr-30 02:33N 37°46' W 122°20'0 0.0
2016-Apr-30 01:33N 37°46' W 122°20'0 0.0
2016-Apr-30 00:33N 37°46' W 122°20'0 0.0
2016-Apr-29 23:33N 37°46' W 122°20'0 0.0
2016-Apr-29 22:33N 37°46' W 122°20'0 0.1
2016-Apr-29 21:30N 37°46' W 122°20'0 0.1
2016-Apr-29 20:33N 37°46' W 122°20'0 0.3
2016-Apr-29 19:33N 37°46' W 122°21'6 6.2
2016-Apr-29 18:34N 37°52' W 122°25'1110.5
2016-Apr-29 17:33N 38°02' W 122°22'1010.3
2016-Apr-29 16:33N 38°02' W 122°09'1 0.0
2016-Apr-28 23:08N 38°02' W 122°08'2 0.1
2016-Apr-27 21:28N 38°03' W 122°11'1011.0
2016-Apr-27 20:33N 38°01' W 122°23'1010.4
2016-Apr-27 19:34N 37°51' W 122°25'1211.8
2016-Apr-27 18:33N 37°46' W 122°38'1010.1
2016-Apr-27 17:33N 37°40' W 122°48'1110.5
2016-Apr-27 16:33N 37°34' W 122°59'4511.2
2016-Apr-27 12:32N 36°51' W 123°13'1211.5
2016-Apr-27 11:31N 36°39' W 123°13'2411.6
2016-Apr-27 09:26N 36°15' W 123°14'1011.2
2016-Apr-27 08:33N 36°05' W 123°11'1211.7
2016-Apr-27 07:32N 35°55' W 123°04'1111.2
2016-Apr-27 06:33N 35°45' W 122°57'1110.8
2016-Apr-27 05:32N 35°35' W 122°51'1010.3
2016-Apr-27 04:33N 35°27' W 122°44'1010.3
2016-Apr-27 03:33N 35°18' W 122°38'10 9.9
2016-Apr-27 02:33N 35°09' W 122°32'10 9.5
2016-Apr-27 01:32N 35°01' W 122°26'9 9.3
2016-Apr-27 00:33N 34°53' W 122°20'10 9.5
2016-Apr-26 23:33N 34°45' W 122°13'10 9.6
2016-Apr-26 22:33N 34°37' W 122°07'12 9.7
2016-Apr-26 21:19N 34°27' W 121°59'8 9.9
2016-Apr-26 20:33N 34°21' W 121°54'180 9.3
2016-Apr-26 01:19N 33°38' W 118°24'6 7.9
2016-Apr-26 00:31N 33°40' W 118°16'5 5.4
2016-Apr-25 23:33N 33°45' W 118°16'0 0.0
2016-Apr-25 22:33N 33°45' W 118°16'0 0.0
2016-Apr-25 21:33N 33°45' W 118°16'0 0.0
2016-Apr-25 20:33N 33°45' W 118°16'0 0.0
2016-Apr-25 19:33N 33°45' W 118°16'0 0.0
2016-Apr-25 18:33N 33°45' W 118°16'0 0.0
2016-Apr-25 17:33N 33°45' W 118°16'0 0.0
2016-Apr-25 16:33N 33°45' W 118°16'0 0.0
2016-Apr-25 15:27N 33°45' W 118°16'0 0.0
2016-Apr-25 14:33N 33°45' W 118°16'0 0.0
2016-Apr-25 13:33N 33°45' W 118°16'0 0.0
2016-Apr-25 12:33N 33°45' W 118°16'0 0.0
2016-Apr-25 11:33N 33°45' W 118°16'0 0.0
2016-Apr-25 10:33N 33°45' W 118°16'0 0.0
2016-Apr-25 09:33N 33°45' W 118°16'0 0.0
2016-Apr-25 08:33N 33°45' W 118°16'0 0.0
2016-Apr-25 07:33N 33°45' W 118°16'0 0.0
2016-Apr-25 06:33N 33°45' W 118°16'0 0.0
2016-Apr-25 05:33N 33°45' W 118°16'0 0.0
2016-Apr-25 04:33N 33°45' W 118°16'0 0.0
2016-Apr-25 03:33N 33°45' W 118°16'0 0.0
2016-Apr-25 02:33N 33°45' W 118°16'0 0.0
2016-Apr-25 01:33N 33°45' W 118°16'0 0.0
2016-Apr-25 00:33N 33°45' W 118°16'0 0.0
2016-Apr-24 23:33N 33°45' W 118°16'0 0.0
2016-Apr-24 22:33N 33°45' W 118°16'0 0.0
2016-Apr-24 21:33N 33°45' W 118°16'0 0.0
2016-Apr-24 20:33N 33°45' W 118°16'0 0.0
2016-Apr-24 19:33N 33°45' W 118°16'0 0.0
2016-Apr-24 18:33N 33°45' W 118°16'0 0.0
2016-Apr-24 17:33N 33°45' W 118°16'0 0.0
2016-Apr-24 16:33N 33°45' W 118°16'0 0.0
2016-Apr-24 15:33N 33°45' W 118°16'0 0.0
2016-Apr-24 14:33N 33°45' W 118°16'0 0.0
2016-Apr-24 13:30N 33°45' W 118°16'0 0.0
2016-Apr-24 12:21N 33°45' W 118°16'0 0.0
2016-Apr-24 11:10N 33°45' W 118°16'1 2.3
2016-Apr-24 10:33N 33°44' W 118°17'7 6.5
2016-Apr-24 09:33N 33°37' W 118°16'1110.0
2016-Apr-24 08:28N 33°36' W 118°29'1210.6
2016-Apr-24 07:22N 33°36' W 118°43'18 9.7
2016-Apr-24 05:33N 33°38' W 119°04'2210.0
2016-Apr-24 03:21N 33°40' W 119°30'28710.0
2016-Apr-22 22:30N 37°26' W 123°08'1111.5
2016-Apr-22 21:31N 37°35' W 123°01'1111.7
2016-Apr-22 20:33N 37°42' W 122°49'1110.7
2016-Apr-22 19:34N 37°46' W 122°37'9 9.0
2016-Apr-22 18:34N 37°50' W 122°27'6 5.7
2016-Apr-22 17:33N 37°55' W 122°27'7 7.3
2016-Apr-22 16:33N 38°02' W 122°22'9 9.4
2016-Apr-22 15:33N 38°03' W 122°11'2 1.1
2016-Apr-22 13:25N 38°02' W 122°08'0 0.0
2016-Apr-22 12:25N 38°02' W 122°08'0 0.0
2016-Apr-22 11:25N 38°02' W 122°08'0 0.0
2016-Apr-22 10:31N 38°02' W 122°08'0 0.0
2016-Apr-22 09:31N 38°02' W 122°08'0 0.0
2016-Apr-22 08:31N 38°02' W 122°08'0 0.0
2016-Apr-22 07:31N 38°02' W 122°08'0 0.0
2016-Apr-22 06:31N 38°02' W 122°08'0 0.0
2016-Apr-22 05:31N 38°02' W 122°08'0 0.0
2016-Apr-22 04:31N 38°02' W 122°08'0 0.0
2016-Apr-22 03:31N 38°02' W 122°08'0 0.0
2016-Apr-22 02:31N 38°02' W 122°08'0 0.0
2016-Apr-22 01:31N 38°02' W 122°08'0 0.0
2016-Apr-22 00:31N 38°02' W 122°08'0 0.0
2016-Apr-21 23:31N 38°02' W 122°08'0 0.0
2016-Apr-21 22:31N 38°02' W 122°08'0 0.0
2016-Apr-21 21:31N 38°02' W 122°08'0 0.0
2016-Apr-21 20:25N 38°02' W 122°08'0 0.0
2016-Apr-21 19:31N 38°02' W 122°08'0 0.0
2016-Apr-21 18:31N 38°02' W 122°08'0 0.0
2016-Apr-21 17:31N 38°02' W 122°08'0 0.0
2016-Apr-21 16:31N 38°02' W 122°08'0 0.0
2016-Apr-21 15:31N 38°02' W 122°08'0 0.0
2016-Apr-21 14:31N 38°02' W 122°08'0 0.0
2016-Apr-21 13:31N 38°02' W 122°08'0 0.0
2016-Apr-21 12:31N 38°02' W 122°08'0 0.0
2016-Apr-21 11:31N 38°02' W 122°08'0 0.0
2016-Apr-21 10:25N 38°02' W 122°08'0 0.0
2016-Apr-21 09:31N 38°02' W 122°08'0 0.0
2016-Apr-21 08:13N 38°02' W 122°08'  

Dump ship's entire track history